createdAt,value
2019-06-20T00:03:07.263Z,14.23
2019-06-20T00:08:10.991Z,13.00
2019-06-20T00:13:14.409Z,14.00
2019-06-20T00:18:17.711Z,15.25
2019-06-20T00:23:20.824Z,14.38
2019-06-20T00:28:24.182Z,14.23
2019-06-20T00:33:27.230Z,21.02
2019-06-20T00:38:30.609Z,18.27
2019-06-20T00:43:33.675Z,18.65
2019-06-20T00:48:36.764Z,19.00
2019-06-20T00:53:40.131Z,13.57
2019-06-20T00:58:43.326Z,13.00
2019-06-20T01:03:46.494Z,16.90
2019-06-20T01:08:49.591Z,14.77
2019-06-20T01:13:53.021Z,16.70
2019-06-20T01:18:56.487Z,13.70
2019-06-20T01:23:59.535Z,13.03
2019-06-20T01:29:02.695Z,18.32
2019-06-20T01:34:05.939Z,14.58
2019-06-20T01:39:10.749Z,13.72
2019-06-20T01:44:13.882Z,13.73
2019-06-20T01:49:16.890Z,15.72
2019-06-20T01:54:20.090Z,16.67
2019-06-20T01:59:23.167Z,23.15
2019-06-20T02:04:26.289Z,18.48
2019-06-20T02:09:29.292Z,16.30
2019-06-20T02:14:32.446Z,15.93
2019-06-20T02:19:35.515Z,14.45
2019-06-20T02:24:38.740Z,15.88
2019-06-20T02:29:41.733Z,12.15
2019-06-20T02:34:44.897Z,16.87
2019-06-20T02:39:48.017Z,18.67
2019-06-20T02:44:52.431Z,14.28
2019-06-20T02:49:55.461Z,18.87
2019-06-20T02:54:58.993Z,15.45
2019-06-20T03:00:02.375Z,14.00
2019-06-20T03:05:06.076Z,16.17
2019-06-20T03:10:09.780Z,13.45
2019-06-20T03:15:13.163Z,18.42
2019-06-20T03:20:16.698Z,15.08
2019-06-20T03:25:20.413Z,15.90
2019-06-20T03:30:23.955Z,16.77
2019-06-20T03:35:27.363Z,16.07
2019-06-20T03:40:31.116Z,15.23
2019-06-20T03:45:35.854Z,13.20
2019-06-20T03:50:39.091Z,15.55
2019-06-20T03:55:42.247Z,14.07
2019-06-20T04:00:45.479Z,15.13
2019-06-20T04:05:48.718Z,13.15
2019-06-20T04:10:52.877Z,13.62
2019-06-20T04:15:55.866Z,15.55
2019-06-20T04:20:59.378Z,14.97
2019-06-20T04:26:02.705Z,13.45
2019-06-20T04:31:05.671Z,15.45
2019-06-20T04:36:08.710Z,11.95
2019-06-20T04:41:12.244Z,13.62
2019-06-20T04:46:27.344Z,11.97
2019-06-20T04:51:30.418Z,15.28
2019-06-20T04:56:33.489Z,14.98
2019-06-20T05:01:36.750Z,21.75
2019-06-20T05:06:43.643Z,16.77
2019-06-20T05:11:47.025Z,13.80
2019-06-20T05:16:50.182Z,14.53
2019-06-20T05:21:53.509Z,14.85
2019-06-20T05:26:56.605Z,11.80
2019-06-20T05:31:59.741Z,10.80
2019-06-20T05:37:02.916Z,12.85
2019-06-20T05:42:06.006Z,16.00
2019-06-20T05:47:13.577Z,11.33
2019-06-20T05:52:14.171Z,13.73
2019-06-20T05:57:17.297Z,11.45
2019-06-20T06:02:20.438Z,10.60
2019-06-20T06:07:23.503Z,10.95
2019-06-20T06:12:27.445Z,14.50
2019-06-20T06:17:30.522Z,12.18
2019-06-20T06:22:33.522Z,10.15
2019-06-20T06:27:36.565Z,9.63
2019-06-20T06:32:40.770Z,10.95
2019-06-20T06:37:44.100Z,9.48
2019-06-20T06:42:47.502Z,11.03
2019-06-20T06:47:50.487Z,9.30
2019-06-20T06:52:53.747Z,8.83
2019-06-20T06:57:57.028Z,8.80
2019-06-20T07:03:00.070Z,7.72
2019-06-20T07:08:03.621Z,9.40
2019-06-20T07:13:06.609Z,7.25
2019-06-20T07:18:09.996Z,7.10
2019-06-20T07:23:13.560Z,8.13
2019-06-20T07:28:16.551Z,10.32
2019-06-20T07:33:19.871Z,8.45
2019-06-20T07:38:23.930Z,8.05
2019-06-20T07:43:26.958Z,7.30
2019-06-20T07:48:30.270Z,6.85
2019-06-20T07:53:33.494Z,7.73
2019-06-20T07:58:36.569Z,5.87
2019-06-20T08:03:39.780Z,7.25
2019-06-20T08:08:42.861Z,9.28
2019-06-20T08:13:46.391Z,9.00
2019-06-20T08:18:49.531Z,9.58
2019-06-20T08:23:53.187Z,10.10
2019-06-20T08:29:10.258Z,7.80
2019-06-20T08:34:02.327Z,6.33
2019-06-20T08:39:09.115Z,6.12
2019-06-20T08:44:12.249Z,4.87
2019-06-20T08:49:15.379Z,6.67
2019-06-20T08:54:18.786Z,5.12
2019-06-20T08:59:24.665Z,6.25
2019-06-20T09:04:27.122Z,6.08
2019-06-20T09:09:30.231Z,6.58
2019-06-20T09:14:34.038Z,7.83
2019-06-20T09:19:37.154Z,5.72
2019-06-20T09:24:40.859Z,4.78
2019-06-20T09:29:44.421Z,5.67
2019-06-20T09:34:48.305Z,6.28
2019-06-20T09:39:52.097Z,7.03
2019-06-20T09:44:56.435Z,5.70
2019-06-20T09:49:59.718Z,10.23
2019-06-20T09:55:03.295Z,3.95
2019-06-20T10:00:10.668Z,5.47
2019-06-20T10:05:15.081Z,6.50
2019-06-20T10:10:19.108Z,6.12
2019-06-20T10:15:25.469Z,7.72
2019-06-20T10:20:29.454Z,4.87
2019-06-20T10:25:32.841Z,7.55
2019-06-20T10:30:36.146Z,6.85
2019-06-20T10:35:39.413Z,6.67
2019-06-20T10:40:44.695Z,6.03
2019-06-20T10:45:47.927Z,5.62
2019-06-20T10:50:52.037Z,5.50
2019-06-20T10:55:55.168Z,6.58
2019-06-20T11:00:59.634Z,7.60
2019-06-20T11:06:02.783Z,4.23
2019-06-20T11:11:05.906Z,6.83
2019-06-20T11:16:09.062Z,7.12
2019-06-20T11:21:12.138Z,7.25
2019-06-20T11:26:15.264Z,5.28
2019-06-20T11:31:18.431Z,4.85
2019-06-20T11:36:21.541Z,6.12
2019-06-20T11:41:24.929Z,8.15
2019-06-20T11:46:28.062Z,5.47
2019-06-20T11:51:31.239Z,6.75
2019-06-20T11:56:34.378Z,5.83
2019-06-20T12:01:38.394Z,5.97
2019-06-20T12:06:43.024Z,5.87
2019-06-20T12:11:46.784Z,6.00
2019-06-20T12:16:49.952Z,4.55
2019-06-20T12:21:53.453Z,7.50
2019-06-20T12:27:00.770Z,8.00
2019-06-20T12:32:03.771Z,4.60
2019-06-20T12:37:07.273Z,4.65
2019-06-20T12:42:10.729Z,6.25
2019-06-20T12:47:15.721Z,6.90
2019-06-20T12:52:19.286Z,6.33
2019-06-20T12:57:22.561Z,6.75
2019-06-20T13:02:26.558Z,5.70
2019-06-20T13:07:30.008Z,11.03
2019-06-20T13:12:33.277Z,7.12
2019-06-20T13:17:39.296Z,7.75
2019-06-20T13:22:42.916Z,4.47
2019-06-20T13:27:47.643Z,8.83
2019-06-20T13:32:51.015Z,6.10
2019-06-20T13:37:54.439Z,8.15
2019-06-20T13:42:57.668Z,5.47
2019-06-20T13:48:00.761Z,6.25
2019-06-20T13:53:03.860Z,5.10
2019-06-20T13:58:07.409Z,6.58
2019-06-20T14:03:10.718Z,5.30
2019-06-20T14:08:13.976Z,7.10
2019-06-20T14:13:19.503Z,5.85
2019-06-20T14:18:22.256Z,7.95
2019-06-20T14:23:26.351Z,7.53
2019-06-20T14:28:29.457Z,5.62
2019-06-20T14:33:32.880Z,10.47
2019-06-20T14:38:36.260Z,8.80
2019-06-20T14:43:39.341Z,6.17
2019-06-20T14:48:43.561Z,5.60
2019-06-20T14:53:49.441Z,7.33
2019-06-20T14:58:53.828Z,5.40
2019-06-20T15:03:57.427Z,11.45
2019-06-20T15:09:05.797Z,6.78
2019-06-20T15:14:06.357Z,9.45
2019-06-20T15:19:09.489Z,9.65
2019-06-20T15:24:12.567Z,9.60
2019-06-20T15:29:15.741Z,10.63
2019-06-20T15:34:19.167Z,9.38
2019-06-20T15:39:22.315Z,7.40
2019-06-20T15:44:25.586Z,9.78
2019-06-20T15:49:29.036Z,9.95
2019-06-20T15:54:32.037Z,10.45
2019-06-20T15:59:35.311Z,11.08
2019-06-20T16:04:38.508Z,10.25
2019-06-20T16:09:41.737Z,8.63
2019-06-20T16:14:45.189Z,10.03
2019-06-20T16:19:48.192Z,8.50
2019-06-20T16:24:51.424Z,9.98
2019-06-20T16:29:54.520Z,9.23
2019-06-20T16:34:57.889Z,9.30
2019-06-20T16:40:01.586Z,9.40
2019-06-20T16:45:05.300Z,10.25
2019-06-20T16:50:10.125Z,7.42
2019-06-20T16:55:14.254Z,11.13
2019-06-20T17:00:17.810Z,12.03
2019-06-20T17:05:21.267Z,9.45
2019-06-20T17:10:24.286Z,7.33
2019-06-20T17:15:27.472Z,7.53
2019-06-20T17:20:30.421Z,7.75
2019-06-20T17:25:33.634Z,8.10
2019-06-20T17:30:36.898Z,9.13
2019-06-20T17:35:39.990Z,10.32
2019-06-20T17:40:43.100Z,8.95
2019-06-20T17:45:46.162Z,6.75
2019-06-20T17:50:49.294Z,10.23
2019-06-20T17:55:52.320Z,8.67
2019-06-20T18:00:55.922Z,7.90
2019-06-20T18:05:59.164Z,7.17
2019-06-20T18:11:02.174Z,10.08
2019-06-20T18:16:05.419Z,8.85
2019-06-20T18:21:08.790Z,7.58
2019-06-20T18:26:12.664Z,8.83
2019-06-20T18:31:15.836Z,8.73
2019-06-20T18:36:18.842Z,12.00
2019-06-20T18:41:21.900Z,13.50
2019-06-20T18:46:25.038Z,9.48
2019-06-20T18:51:28.133Z,8.80
2019-06-20T18:56:31.182Z,10.03
2019-06-20T19:01:34.347Z,9.68
2019-06-20T19:06:37.456Z,9.78
2019-06-20T19:11:41.053Z,9.05
2019-06-20T19:16:44.149Z,13.90
2019-06-20T19:21:47.333Z,11.22
2019-06-20T19:26:50.484Z,11.75
2019-06-20T19:31:53.960Z,12.15
2019-06-20T19:36:57.231Z,11.30
2019-06-20T19:42:00.377Z,14.70
2019-06-20T19:47:03.492Z,14.05
2019-06-20T19:52:07.362Z,11.00
2019-06-20T19:57:10.611Z,10.30
2019-06-20T20:02:14.089Z,10.60
2019-06-20T20:07:17.201Z,13.65
2019-06-20T20:12:20.312Z,12.23
2019-06-20T20:17:23.406Z,13.18
2019-06-20T20:22:26.594Z,12.33
2019-06-20T20:27:29.907Z,13.70
2019-06-20T20:32:33.138Z,15.43
2019-06-20T20:37:36.274Z,19.45
2019-06-20T20:42:39.794Z,17.45
2019-06-20T20:47:42.895Z,14.98
2019-06-20T20:52:46.016Z,14.77
2019-06-20T20:57:49.154Z,19.55
2019-06-20T21:02:52.745Z,16.05
2019-06-20T21:07:55.952Z,17.45
2019-06-20T21:12:59.150Z,12.95
2019-06-20T21:18:02.197Z,14.30
2019-06-20T21:23:05.474Z,15.40
2019-06-20T21:28:08.513Z,14.78
2019-06-20T21:33:12.389Z,12.34
2019-06-20T21:38:15.943Z,13.25
2019-06-20T21:43:19.055Z,16.57
2019-06-20T21:48:22.142Z,14.00
2019-06-20T21:53:26.053Z,12.90
2019-06-20T21:58:29.979Z,12.77
2019-06-20T22:03:33.317Z,14.05
2019-06-20T22:08:36.403Z,13.07
2019-06-20T22:13:43.134Z,14.68
2019-06-20T22:18:46.407Z,13.40
2019-06-20T22:23:49.652Z,13.13
2019-06-20T22:28:52.634Z,15.03
2019-06-20T22:33:55.869Z,13.73
2019-06-20T22:38:58.929Z,12.90
2019-06-20T22:44:02.292Z,12.43
2019-06-20T22:49:05.313Z,14.30
2019-06-20T22:54:08.529Z,14.80
2019-06-20T22:59:11.807Z,14.33
2019-06-20T23:04:14.888Z,12.55
2019-06-20T23:09:17.905Z,10.98
2019-06-20T23:14:20.997Z,11.88
2019-06-20T23:19:24.249Z,12.10
2019-06-20T23:24:27.437Z,13.18
2019-06-20T23:29:30.506Z,13.25
2019-06-20T23:34:33.479Z,16.95
2019-06-20T23:39:37.016Z,10.55
2019-06-20T23:44:40.256Z,12.70
2019-06-20T23:49:43.416Z,12.05
2019-06-20T23:54:46.980Z,13.10
2019-06-20T23:59:50.237Z,14.40
